createdAt,value
2019-04-06T00:03:52.031Z,61.13
2019-04-06T00:08:55.326Z,57.27
2019-04-06T00:13:59.155Z,72.30
2019-04-06T00:19:02.991Z,69.07
2019-04-06T00:24:06.810Z,59.30
2019-04-06T00:29:10.955Z,58.57
2019-04-06T00:34:15.393Z,61.03
2019-04-06T00:39:19.521Z,57.23
2019-04-06T00:44:23.362Z,65.53
2019-04-06T00:49:27.182Z,67.47
2019-04-06T00:54:31.312Z,63.80
2019-04-06T00:59:35.161Z,66.60
2019-04-06T01:04:39.280Z,66.47
2019-04-06T01:09:43.110Z,86.00
2019-04-06T01:14:46.936Z,80.20
2019-04-06T01:19:51.070Z,71.87
2019-04-06T01:24:54.897Z,67.50
2019-04-06T01:29:59.036Z,84.07
2019-04-06T01:35:02.870Z,69.80
2019-04-06T01:40:07.620Z,67.47
2019-04-06T01:45:11.436Z,62.30
2019-04-06T01:50:15.262Z,65.07
2019-04-06T01:55:19.093Z,61.73
2019-04-06T02:00:22.917Z,66.93
2019-04-06T02:05:27.056Z,57.57
2019-04-06T02:10:30.881Z,62.60
2019-04-06T02:15:34.706Z,65.80
2019-04-06T02:20:38.539Z,53.30
2019-04-06T02:25:42.685Z,53.80
2019-04-06T02:31:03.395Z,60.87
2019-04-06T02:36:21.056Z,50.07
2019-04-06T02:41:43.093Z,56.80
2019-04-06T02:46:47.135Z,58.73
2019-04-06T02:51:51.275Z,61.87
2019-04-06T02:56:55.097Z,69.37
2019-04-06T03:01:58.926Z,73.20
2019-04-06T03:07:02.755Z,58.83
2019-04-06T03:12:06.583Z,59.53
2019-04-06T03:17:10.723Z,64.40
2019-04-06T03:22:14.855Z,64.73
2019-04-06T03:27:18.778Z,54.30
2019-04-06T03:32:22.819Z,80.10
2019-04-06T03:37:26.639Z,71.53
2019-04-06T03:42:30.466Z,57.47
2019-04-06T03:47:34.302Z,63.40
2019-04-06T03:52:38.432Z,57.13
2019-04-06T03:57:42.566Z,70.70
2019-04-06T04:02:46.401Z,59.53
2019-04-06T04:07:50.220Z,61.53
2019-04-06T04:12:54.355Z,67.23
2019-04-06T04:17:58.188Z,54.03
2019-04-06T04:23:02.046Z,62.73
2019-04-06T04:28:06.155Z,64.33
2019-04-06T04:33:09.976Z,65.13
2019-04-06T04:38:13.809Z,62.50
2019-04-06T04:43:17.943Z,63.63
2019-04-06T04:48:21.763Z,65.60
2019-04-06T04:53:25.594Z,53.37
2019-04-06T04:58:29.426Z,63.27
2019-04-06T05:03:33.455Z,53.20
2019-04-06T05:08:37.387Z,68.20
2019-04-06T05:13:41.268Z,76.00
2019-04-06T05:18:45.349Z,73.13
2019-04-06T05:23:50.744Z,101.10
2019-04-06T05:28:54.536Z,84.10
2019-04-06T05:33:58.472Z,88.40
2019-04-06T05:39:02.521Z,86.20
2019-04-06T05:44:06.641Z,77.30
2019-04-06T05:49:10.460Z,76.27
2019-04-06T05:54:14.361Z,73.80
2019-04-06T05:59:18.424Z,105.70
2019-04-06T06:04:22.254Z,87.50
2019-04-06T06:09:26.084Z,109.63
2019-04-06T06:14:29.908Z,68.17
2019-04-06T06:19:33.905Z,77.37
2019-04-06T06:24:37.868Z,65.37
2019-04-06T06:29:41.696Z,90.23
2019-04-06T06:34:45.525Z,81.60
2019-04-06T06:39:49.357Z,67.47
2019-04-06T06:44:53.491Z,62.40
2019-04-06T06:49:57.626Z,70.90
2019-04-06T06:55:01.358Z,64.97
2019-04-06T07:00:05.987Z,78.53
2019-04-06T07:05:09.704Z,79.73
2019-04-06T07:10:13.447Z,75.37
2019-04-06T07:15:17.126Z,91.77
2019-04-06T07:20:20.872Z,102.57
2019-04-06T07:25:24.815Z,71.23
2019-04-06T07:30:28.653Z,49.37
2019-04-06T07:35:32.615Z,49.40
2019-04-06T07:40:36.347Z,92.60
2019-04-06T07:45:40.115Z,147.47
2019-04-06T07:50:43.889Z,103.77
2019-04-06T07:55:47.577Z,97.70
2019-04-06T08:00:51.353Z,107.77
2019-04-06T08:05:55.438Z,297.63
2019-04-06T08:10:59.317Z,94.60
2019-04-06T08:16:03.376Z,100.80
2019-04-06T08:21:07.446Z,88.20
2019-04-06T08:26:11.275Z,137.00
2019-04-06T08:31:15.141Z,93.97
2019-04-06T08:36:19.011Z,90.17
2019-04-06T08:41:23.083Z,91.13
2019-04-06T08:46:26.819Z,85.50
2019-04-06T08:51:30.520Z,85.63
2019-04-06T08:56:34.547Z,81.60
2019-04-06T09:01:38.369Z,131.60
2019-04-06T09:06:42.197Z,72.47
2019-04-06T09:11:46.070Z,64.80
2019-04-06T09:16:50.473Z,63.40
2019-04-06T09:21:54.350Z,57.47
2019-04-06T09:26:58.437Z,52.33
2019-04-06T09:32:02.260Z,39.63
2019-04-06T09:37:06.399Z,46.70
2019-04-06T09:42:10.234Z,67.20
2019-04-06T09:47:15.684Z,50.83
2019-04-06T09:52:37.393Z,56.13
2019-04-06T09:57:48.748Z,63.40
2019-04-06T10:02:54.105Z,40.23
2019-04-06T10:08:05.580Z,121.00
2019-04-06T10:13:16.812Z,33.37
2019-04-06T10:18:34.167Z,43.50
2019-04-06T10:23:39.524Z,23.53
2019-04-06T10:28:51.063Z,129.17
2019-04-06T10:34:08.944Z,36.03
2019-04-06T10:39:20.274Z,193.13
2019-04-06T10:44:37.844Z,153.23
2019-04-06T10:49:49.396Z,31.57
2019-04-06T10:55:04.238Z,61.23
2019-04-06T11:00:25.479Z,166.60
2019-04-06T11:05:42.506Z,38.37
2019-04-06T11:10:51.107Z,76.43
2019-04-06T11:15:56.728Z,62.67
2019-04-06T11:21:18.060Z,44.80
2019-04-06T11:26:26.500Z,40.70
2019-04-06T11:31:37.979Z,24.47
2019-04-06T11:36:59.650Z,22.73
2019-04-06T11:42:05.204Z,14.90
2019-04-06T11:47:13.779Z,24.10
2019-04-06T11:52:31.141Z,51.57
2019-04-06T11:57:42.299Z,56.73
2019-04-06T12:02:50.132Z,98.07
2019-04-06T12:07:55.486Z,61.00
2019-04-06T12:13:06.684Z,77.20
2019-04-06T12:18:12.359Z,55.47
2019-04-06T12:23:36.115Z,43.53
2019-04-06T12:28:41.827Z,64.00
2019-04-06T12:33:53.335Z,108.90
2019-04-06T12:39:14.121Z,101.60
2019-04-06T12:44:37.851Z,142.73
2019-04-06T12:49:46.592Z,106.37
2019-04-06T12:54:54.640Z,96.80
2019-04-06T13:00:06.187Z,70.03
2019-04-06T13:05:20.510Z,108.10
2019-04-06T13:10:25.871Z,132.77
2019-04-06T13:15:36.760Z,272.83
2019-04-06T13:20:58.779Z,176.30
2019-04-06T13:26:07.062Z,87.23
2019-04-06T13:31:21.322Z,95.63
2019-04-06T13:36:32.936Z,161.60
2019-04-06T13:41:50.273Z,118.67
2019-04-06T13:47:12.548Z,91.27
2019-04-06T13:52:18.521Z,68.53
2019-04-06T13:57:27.236Z,85.83
2019-04-06T14:02:38.465Z,98.73
2019-04-06T14:07:59.184Z,97.97
2019-04-06T14:13:16.923Z,122.77
2019-04-06T14:18:38.789Z,99.03
2019-04-06T14:23:50.819Z,90.73
2019-04-06T14:29:05.492Z,97.20
2019-04-06T14:34:27.278Z,88.40
2019-04-06T14:39:48.626Z,60.97
2019-04-06T14:44:59.708Z,94.73
2019-04-06T14:50:07.521Z,108.13
2019-04-06T14:55:24.576Z,95.93
2019-04-06T15:00:29.857Z,66.30
2019-04-06T15:05:52.424Z,90.13
2019-04-06T15:10:59.815Z,199.43
2019-04-06T15:16:05.085Z,140.77
2019-04-06T15:21:13.358Z,280.77
2019-04-06T15:26:18.663Z,130.63
2019-04-06T15:31:24.544Z,254.90
2019-04-06T15:36:33.269Z,159.67
2019-04-06T15:41:54.750Z,149.83
2019-04-06T15:47:03.323Z,142.93
2019-04-06T15:52:12.559Z,152.83
2019-04-06T15:57:18.547Z,135.63
2019-04-06T16:02:38.974Z,186.50
2019-04-06T16:08:00.766Z,163.83
2019-04-06T16:13:21.333Z,191.10
2019-04-06T16:18:43.686Z,221.80
2019-04-06T16:24:01.711Z,154.33
2019-04-06T16:29:04.617Z,194.53
2019-04-06T16:34:09.937Z,232.57
2019-04-06T16:39:18.404Z,144.97
2019-04-06T16:44:29.408Z,130.83
2019-04-06T16:49:46.946Z,169.10
2019-04-06T16:55:01.258Z,189.70
2019-04-06T17:00:18.496Z,236.67
2019-04-06T17:05:23.829Z,212.97
2019-04-06T17:10:29.186Z,171.47
2019-04-06T17:15:43.627Z,148.87
2019-04-06T17:20:51.995Z,134.23
2019-04-06T17:26:09.937Z,119.33
2019-04-06T17:31:33.432Z,113.60
2019-04-06T17:36:39.101Z,148.33
2019-04-06T17:42:00.525Z,217.23
2019-04-06T17:47:22.102Z,213.27
2019-04-06T17:52:43.989Z,226.27
2019-04-06T17:58:01.455Z,174.27
2019-04-06T18:03:07.032Z,153.70
2019-04-06T18:08:12.416Z,180.03
2019-04-06T18:13:35.730Z,214.03
2019-04-06T18:18:39.460Z,246.03
2019-04-06T18:23:43.787Z,206.20
2019-04-06T18:28:47.546Z,184.40
2019-04-06T18:33:51.274Z,219.10
2019-04-06T18:39:09.367Z,253.23
2019-04-06T18:44:13.107Z,240.03
2019-04-06T18:49:17.061Z,239.37
2019-04-06T18:54:20.997Z,227.73
2019-04-06T18:59:24.864Z,215.70
2019-04-06T19:04:29.252Z,237.13
2019-04-06T19:09:33.789Z,255.00
2019-04-06T19:14:37.610Z,256.63
2019-04-06T19:19:41.363Z,231.47
2019-04-06T19:24:45.156Z,207.70
2019-04-06T19:29:48.990Z,179.27
2019-04-06T19:34:53.101Z,150.57
2019-04-06T19:39:56.947Z,184.90
2019-04-06T19:45:01.276Z,161.00
2019-04-06T19:50:08.294Z,207.13
2019-04-06T19:55:12.674Z,235.17
2019-04-06T20:00:16.912Z,232.37
2019-04-06T20:05:21.002Z,211.17
2019-04-06T20:10:24.832Z,232.83
2019-04-06T20:15:28.782Z,185.27
2019-04-06T20:20:33.035Z,152.80
2019-04-06T20:25:37.375Z,134.67
2019-04-06T20:30:41.374Z,186.80
2019-04-06T20:35:45.508Z,274.67
2019-04-06T20:40:49.442Z,289.00
2019-04-06T20:45:53.468Z,272.13
2019-04-06T20:50:57.295Z,235.33
2019-04-06T20:56:01.129Z,184.10
2019-04-06T21:01:05.264Z,218.63
2019-04-06T21:06:09.396Z,280.50
2019-04-06T21:11:13.858Z,284.43
2019-04-06T21:16:17.973Z,213.07
2019-04-06T21:21:22.077Z,191.40
2019-04-06T21:26:26.290Z,174.70
2019-04-06T21:31:30.655Z,197.10
2019-04-06T21:36:35.105Z,219.30
2019-04-06T21:41:39.612Z,221.17
2019-04-06T21:46:43.709Z,211.43
2019-04-06T21:51:48.021Z,178.03
2019-04-06T21:56:52.586Z,203.03
2019-04-06T22:01:56.902Z,147.93
2019-04-06T22:07:01.141Z,127.43
2019-04-06T22:12:04.990Z,107.87
2019-04-06T22:17:10.056Z,84.30
2019-04-06T22:22:14.501Z,92.87
2019-04-06T22:27:18.631Z,100.17
2019-04-06T22:32:22.456Z,121.60
2019-04-06T22:37:26.301Z,153.20
2019-04-06T22:42:30.483Z,214.50
2019-04-06T22:47:34.746Z,152.83
2019-04-06T22:52:38.686Z,174.87
2019-04-06T22:57:42.822Z,145.87
2019-04-06T23:03:04.631Z,90.53
2019-04-06T23:08:09.253Z,77.43
2019-04-06T23:13:13.354Z,74.20
2019-04-06T23:18:17.177Z,64.77
2019-04-06T23:23:21.004Z,66.47
2019-04-06T23:28:24.831Z,72.60
2019-04-06T23:33:29.034Z,68.43
2019-04-06T23:38:33.107Z,79.33
2019-04-06T23:43:37.244Z,80.07
2019-04-06T23:48:41.069Z,68.23
2019-04-06T23:53:45.506Z,74.97
2019-04-06T23:58:49.800Z,72.70
